createdAt,value
2022-12-29T00:01:06.237Z,22.77
2022-12-29T00:03:35.150Z,23.13
2022-12-29T00:06:03.952Z,21.83
2022-12-29T00:08:41.771Z,21.47
2022-12-29T00:11:14.449Z,21.30
2022-12-29T00:14:00.549Z,20.63
2022-12-29T00:16:29.915Z,20.67
2022-12-29T00:18:58.447Z,20.47
2022-12-29T00:21:47.331Z,20.23
2022-12-29T00:24:36.678Z,19.57
2022-12-29T00:27:32.654Z,20.03
2022-12-29T00:30:19.325Z,18.37
2022-12-29T00:33:06.585Z,20.30
2022-12-29T00:35:40.801Z,18.17
2022-12-29T00:38:28.833Z,18.37
2022-12-29T00:41:14.753Z,19.77
2022-12-29T00:44:01.924Z,20.67
2022-12-29T00:46:30.544Z,20.07
2022-12-29T00:49:22.177Z,20.37
2022-12-29T00:51:51.415Z,19.40
2022-12-29T00:54:20.265Z,19.50
2022-12-29T00:56:50.148Z,19.57
2022-12-29T00:59:21.485Z,18.60
2022-12-29T01:01:50.631Z,18.67
2022-12-29T01:04:19.474Z,18.00
2022-12-29T01:06:48.595Z,16.60
2022-12-29T01:09:34.896Z,16.67
2022-12-29T01:12:03.653Z,16.27
2022-12-29T01:14:34.242Z,17.40
2022-12-29T01:17:03.008Z,17.33
2022-12-29T01:19:56.477Z,18.23
2022-12-29T01:22:25.066Z,18.27
2022-12-29T01:24:53.512Z,18.37
2022-12-29T01:27:22.295Z,16.93
2022-12-29T01:29:55.361Z,16.90
2022-12-29T01:32:24.561Z,17.43
2022-12-29T01:35:18.653Z,17.23
2022-12-29T01:37:47.416Z,19.80
2022-12-29T01:40:47.773Z,20.23
2022-12-29T01:43:17.215Z,19.87
2022-12-29T01:45:53.100Z,17.70
2022-12-29T01:48:23.067Z,17.03
2022-12-29T01:50:54.829Z,17.53
2022-12-29T01:53:28.822Z,18.67
2022-12-29T01:56:00.625Z,18.03
2022-12-29T01:58:33.189Z,18.30
2022-12-29T02:01:05.151Z,17.90
2022-12-29T02:03:58.757Z,17.83
2022-12-29T02:06:32.072Z,17.83
2022-12-29T02:09:01.432Z,18.50
2022-12-29T02:11:31.398Z,19.03
2022-12-29T02:14:03.630Z,20.77
2022-12-29T02:16:52.409Z,22.70
2022-12-29T02:19:59.812Z,18.93
2022-12-29T02:22:37.429Z,18.03
2022-12-29T02:25:48.839Z,17.37
2022-12-29T02:28:49.882Z,17.20
2022-12-29T02:31:27.369Z,17.57
2022-12-29T02:34:06.139Z,18.13
2022-12-29T02:36:43.986Z,18.03
2022-12-29T02:39:19.715Z,18.27
2022-12-29T02:41:59.374Z,17.73
2022-12-29T02:44:37.327Z,17.53
2022-12-29T02:47:17.073Z,17.53
2022-12-29T02:49:55.609Z,18.50
2022-12-29T02:52:30.179Z,16.70
2022-12-29T02:54:57.600Z,15.10
2022-12-29T02:57:35.332Z,16.30
2022-12-29T03:00:11.397Z,13.60
2022-12-29T03:03:19.256Z,15.03
2022-12-29T03:06:13.586Z,13.83
2022-12-29T03:08:50.915Z,13.47
2022-12-29T03:11:37.129Z,14.97
2022-12-29T03:14:28.584Z,14.40
2022-12-29T03:17:02.096Z,15.03
2022-12-29T03:19:35.240Z,13.40
2022-12-29T03:22:23.999Z,15.43
2022-12-29T03:24:56.993Z,14.67
2022-12-29T03:27:29.828Z,13.70
2022-12-29T03:30:04.429Z,13.90
2022-12-29T03:32:37.844Z,14.40
2022-12-29T03:35:13.557Z,14.90
2022-12-29T03:37:47.017Z,13.70
2022-12-29T03:40:15.653Z,14.03
2022-12-29T03:42:45.500Z,13.83
2022-12-29T03:45:14.397Z,13.97
2022-12-29T03:47:43.139Z,12.37
2022-12-29T03:50:14.648Z,12.63
2022-12-29T03:52:43.683Z,13.97
2022-12-29T03:55:13.171Z,15.10
2022-12-29T03:57:41.846Z,13.40
2022-12-29T04:00:11.823Z,14.80
2022-12-29T04:02:40.818Z,14.97
2022-12-29T04:05:09.883Z,13.47
2022-12-29T04:07:40.035Z,13.13
2022-12-29T04:10:09.269Z,14.43
2022-12-29T04:13:02.544Z,13.20
2022-12-29T04:15:50.613Z,13.53
2022-12-29T04:18:23.177Z,14.63
2022-12-29T04:21:04.208Z,15.03
2022-12-29T04:23:36.622Z,15.93
2022-12-29T04:26:07.575Z,16.30
2022-12-29T04:28:36.825Z,16.50
2022-12-29T04:31:06.563Z,15.60
2022-12-29T04:33:36.074Z,16.30
2022-12-29T04:36:05.021Z,15.23
2022-12-29T04:38:35.610Z,16.83
2022-12-29T04:41:04.657Z,16.20
2022-12-29T04:43:33.336Z,15.90
2022-12-29T04:46:05.907Z,14.87
2022-12-29T04:48:34.552Z,15.20
2022-12-29T04:51:03.255Z,14.47
2022-12-29T04:53:32.333Z,15.47
2022-12-29T04:56:10.344Z,14.03
2022-12-29T04:58:39.469Z,15.93
2022-12-29T05:01:08.287Z,14.77
2022-12-29T05:03:37.537Z,14.60
2022-12-29T05:06:06.519Z,14.97
2022-12-29T05:08:36.075Z,15.27
2022-12-29T05:11:04.872Z,17.43
2022-12-29T05:13:35.152Z,16.30
2022-12-29T05:16:03.861Z,17.40
2022-12-29T05:18:32.576Z,17.70
2022-12-29T05:21:01.283Z,20.13
2022-12-29T05:23:54.755Z,17.83
2022-12-29T05:26:23.592Z,22.93
2022-12-29T05:28:56.931Z,19.97
2022-12-29T05:31:25.886Z,18.50
2022-12-29T05:33:54.618Z,17.17
2022-12-29T05:36:23.327Z,18.10
2022-12-29T05:38:52.044Z,16.53
2022-12-29T05:41:20.812Z,18.37
2022-12-29T05:43:49.798Z,18.70
2022-12-29T05:46:19.909Z,17.97
2022-12-29T05:48:48.963Z,17.43
2022-12-29T05:52:12.202Z,16.87
2022-12-29T05:54:40.829Z,15.47
2022-12-29T05:57:09.904Z,16.90
2022-12-29T05:59:44.662Z,18.33
2022-12-29T06:02:15.215Z,24.93
2022-12-29T06:04:43.769Z,32.20
2022-12-29T06:07:12.665Z,27.97
2022-12-29T06:09:41.092Z,22.57
2022-12-29T06:12:10.009Z,18.90
2022-12-29T06:14:38.811Z,19.03
2022-12-29T06:17:07.489Z,17.37
2022-12-29T06:19:37.751Z,17.00
2022-12-29T06:22:06.264Z,16.70
2022-12-29T06:24:34.880Z,15.90
2022-12-29T06:27:03.650Z,14.77
2022-12-29T06:29:32.811Z,15.40
2022-12-29T06:32:01.807Z,15.40
2022-12-29T06:34:30.594Z,15.50
2022-12-29T06:37:26.491Z,18.23
2022-12-29T06:39:55.413Z,14.63
2022-12-29T06:42:24.501Z,16.93
2022-12-29T06:45:02.003Z,16.23
2022-12-29T06:47:30.707Z,15.47
2022-12-29T06:50:00.435Z,14.77
2022-12-29T06:52:31.006Z,15.47
2022-12-29T06:54:59.994Z,16.80
2022-12-29T06:57:28.660Z,15.80
2022-12-29T07:00:24.874Z,19.47
2022-12-29T07:02:53.696Z,17.90
2022-12-29T07:05:22.348Z,18.20
2022-12-29T07:07:53.506Z,19.93
2022-12-29T07:10:22.169Z,19.47
2022-12-29T07:12:50.855Z,17.37
2022-12-29T07:15:19.768Z,17.27
2022-12-29T07:17:48.300Z,17.73
2022-12-29T07:20:19.473Z,19.37
2022-12-29T07:22:53.711Z,20.90
2022-12-29T07:25:22.401Z,20.53
2022-12-29T07:27:51.290Z,20.57
2022-12-29T07:30:20.500Z,19.90
2022-12-29T07:32:49.093Z,19.17
2022-12-29T07:35:17.918Z,17.80
2022-12-29T07:37:46.814Z,19.40
2022-12-29T07:40:17.258Z,19.03
2022-12-29T07:42:46.043Z,18.13
2022-12-29T07:45:14.999Z,17.43
2022-12-29T07:47:43.523Z,18.73
2022-12-29T07:50:12.267Z,17.13
2022-12-29T07:52:41.183Z,17.13
2022-12-29T07:55:10.632Z,17.67
2022-12-29T07:57:41.144Z,17.03
2022-12-29T08:00:11.934Z,18.97
2022-12-29T08:02:40.882Z,17.53
2022-12-29T08:05:10.159Z,17.30
2022-12-29T08:07:38.776Z,19.77
2022-12-29T08:10:08.610Z,18.10
2022-12-29T08:12:37.164Z,16.80
2022-12-29T08:15:09.109Z,17.97
2022-12-29T08:17:37.675Z,18.60
2022-12-29T08:20:07.867Z,16.83
2022-12-29T08:22:36.711Z,16.43
2022-12-29T08:25:06.495Z,18.03
2022-12-29T08:27:35.499Z,17.30
2022-12-29T08:30:03.995Z,15.40
2022-12-29T08:32:34.803Z,16.43
2022-12-29T08:35:03.581Z,15.83
2022-12-29T08:37:32.279Z,14.87
2022-12-29T08:40:04.809Z,15.00
2022-12-29T08:42:34.215Z,14.80
2022-12-29T08:45:03.012Z,16.10
2022-12-29T08:47:31.864Z,14.87
2022-12-29T08:50:02.005Z,15.80
2022-12-29T08:52:30.877Z,16.57
2022-12-29T08:55:24.622Z,15.17
2022-12-29T08:57:53.257Z,15.67
2022-12-29T09:00:23.162Z,16.00
2022-12-29T09:02:52.011Z,13.43
2022-12-29T09:05:22.576Z,14.77
2022-12-29T09:07:51.874Z,14.20
2022-12-29T09:10:20.838Z,15.43
2022-12-29T09:12:49.456Z,14.43
2022-12-29T09:15:18.525Z,14.00
2022-12-29T09:17:47.504Z,14.57
2022-12-29T09:20:18.130Z,28.53
2022-12-29T09:22:49.662Z,19.80
2022-12-29T09:25:19.148Z,15.10
2022-12-29T09:27:49.217Z,13.17
2022-12-29T09:30:27.267Z,13.30
2022-12-29T09:32:55.887Z,14.17
2022-12-29T09:35:24.525Z,13.83
2022-12-29T09:37:54.514Z,12.23
2022-12-29T09:40:32.482Z,13.47
2022-12-29T09:43:30.072Z,15.63
2022-12-29T09:46:08.960Z,13.50
2022-12-29T09:48:44.422Z,12.60
2022-12-29T09:51:17.599Z,12.83
2022-12-29T09:53:52.569Z,14.00
2022-12-29T09:56:24.264Z,13.97
2022-12-29T09:59:20.110Z,13.87
2022-12-29T10:01:56.191Z,17.20
2022-12-29T10:04:25.156Z,16.17
2022-12-29T10:09:58.853Z,14.27
2022-12-29T10:12:35.681Z,15.83
2022-12-29T10:15:15.000Z,15.83
2022-12-29T10:17:55.227Z,15.17
2022-12-29T10:20:31.531Z,13.57
2022-12-29T10:23:29.509Z,14.93
2022-12-29T10:26:01.067Z,15.47
2022-12-29T10:28:38.379Z,14.30
2022-12-29T10:31:11.788Z,16.17
2022-12-29T10:33:44.315Z,13.60
2022-12-29T10:36:20.831Z,14.63
2022-12-29T10:38:57.951Z,14.30
2022-12-29T10:41:34.834Z,20.23
2022-12-29T10:44:03.861Z,17.33
2022-12-29T10:46:40.200Z,15.97
2022-12-29T10:49:19.620Z,16.97
2022-12-29T10:51:53.380Z,15.80
2022-12-29T10:54:26.686Z,14.97
2022-12-29T10:57:02.055Z,16.50
2022-12-29T10:59:34.175Z,15.00
2022-12-29T11:02:16.573Z,16.30
2022-12-29T11:04:55.468Z,16.47
2022-12-29T11:07:27.386Z,18.20
2022-12-29T11:09:56.590Z,17.30
2022-12-29T11:13:05.395Z,15.90
2022-12-29T11:15:41.796Z,14.63
2022-12-29T11:18:22.152Z,15.63
2022-12-29T11:20:52.037Z,15.47
2022-12-29T11:23:26.986Z,15.30
2022-12-29T11:26:22.591Z,15.13
2022-12-29T11:29:23.126Z,14.23
2022-12-29T11:31:53.831Z,16.70
2022-12-29T11:34:24.784Z,16.03
2022-12-29T11:36:55.358Z,14.40
2022-12-29T11:39:32.923Z,14.13
2022-12-29T11:42:19.938Z,17.23
2022-12-29T11:44:52.405Z,16.83
2022-12-29T11:47:37.699Z,16.57
2022-12-29T11:50:09.470Z,17.00
2022-12-29T11:52:40.756Z,15.80
2022-12-29T11:55:21.265Z,16.90
2022-12-29T11:57:50.707Z,15.77
2022-12-29T12:00:22.903Z,13.97
2022-12-29T12:02:59.296Z,15.90
2022-12-29T12:05:36.055Z,15.33
2022-12-29T12:08:17.487Z,15.23
2022-12-29T12:10:52.915Z,19.03
2022-12-29T12:13:26.984Z,16.30
2022-12-29T12:16:04.670Z,27.70
2022-12-29T12:18:48.641Z,22.83
2022-12-29T12:21:24.621Z,16.60
2022-12-29T12:24:14.701Z,16.20
2022-12-29T12:27:13.713Z,16.23
2022-12-29T12:29:50.013Z,14.97
2022-12-29T12:32:24.675Z,13.53
2022-12-29T12:35:02.271Z,14.43
2022-12-29T12:37:49.647Z,15.23
2022-12-29T12:40:40.751Z,13.00
2022-12-29T12:43:27.603Z,13.63
2022-12-29T12:46:33.943Z,15.63
2022-12-29T12:49:35.490Z,13.80
2022-12-29T12:52:11.317Z,13.20
2022-12-29T12:54:58.761Z,14.93
2022-12-29T12:57:43.068Z,15.57
2022-12-29T13:00:14.104Z,16.07
2022-12-29T13:03:00.553Z,14.97
2022-12-29T13:05:45.017Z,14.57
2022-12-29T13:08:45.608Z,16.03
2022-12-29T13:11:24.055Z,15.20
2022-12-29T13:14:06.303Z,14.53
2022-12-29T13:17:05.089Z,13.33
2022-12-29T13:19:39.263Z,13.17
2022-12-29T13:22:15.023Z,16.33
2022-12-29T13:24:58.336Z,13.93
2022-12-29T13:27:38.008Z,16.10
2022-12-29T13:30:11.237Z,18.20
2022-12-29T13:32:59.069Z,17.57
2022-12-29T13:35:41.129Z,16.90
2022-12-29T13:38:18.078Z,17.27
2022-12-29T13:40:52.226Z,21.87
2022-12-29T13:43:22.653Z,17.90
2022-12-29T13:45:58.542Z,15.37
2022-12-29T13:48:41.884Z,21.47
2022-12-29T13:51:13.641Z,19.37
2022-12-29T13:54:32.447Z,18.77
2022-12-29T13:57:10.589Z,16.90
2022-12-29T13:59:46.738Z,15.60
2022-12-29T14:02:29.535Z,18.67
2022-12-29T14:05:00.702Z,18.83
2022-12-29T14:07:30.767Z,18.37
2022-12-29T14:10:00.469Z,19.57
2022-12-29T14:12:39.159Z,20.37
2022-12-29T14:15:25.493Z,20.57
2022-12-29T14:18:08.106Z,19.60
2022-12-29T14:20:37.271Z,19.23
2022-12-29T14:23:19.667Z,20.33
2022-12-29T14:26:22.605Z,19.23
2022-12-29T14:28:52.844Z,18.50
2022-12-29T14:31:46.928Z,19.43
2022-12-29T14:34:33.145Z,21.67
2022-12-29T14:37:03.200Z,18.77
2022-12-29T14:39:40.444Z,22.50
2022-12-29T14:42:15.163Z,22.13
2022-12-29T14:44:55.199Z,22.47
2022-12-29T14:47:36.372Z,25.03
2022-12-29T14:50:08.045Z,22.13
2022-12-29T14:52:47.897Z,19.40
2022-12-29T14:55:41.105Z,21.70
2022-12-29T14:58:20.586Z,19.67
2022-12-29T15:00:51.278Z,22.00
2022-12-29T15:03:47.046Z,21.97
2022-12-29T15:06:20.129Z,22.90
2022-12-29T15:08:52.448Z,23.53
2022-12-29T15:11:24.257Z,23.40
2022-12-29T15:13:53.175Z,23.13
2022-12-29T15:16:38.267Z,24.50
2022-12-29T15:19:23.160Z,24.73
2022-12-29T15:21:52.374Z,24.50
2022-12-29T15:24:20.966Z,26.80
2022-12-29T15:26:52.927Z,28.07
2022-12-29T15:29:38.341Z,30.20
2022-12-29T15:32:21.172Z,34.87
2022-12-29T15:34:52.310Z,37.13
2022-12-29T15:37:22.467Z,37.00
2022-12-29T15:39:51.501Z,38.47
2022-12-29T15:42:50.966Z,41.53
2022-12-29T15:45:19.827Z,36.87
2022-12-29T15:47:52.303Z,40.27
2022-12-29T15:50:26.370Z,53.43
2022-12-29T15:52:55.144Z,47.47
2022-12-29T15:55:30.088Z,52.83
2022-12-29T15:58:01.076Z,35.73
2022-12-29T16:00:31.810Z,37.63
2022-12-29T16:03:05.566Z,39.30
2022-12-29T16:05:36.316Z,35.17
2022-12-29T16:08:05.966Z,32.93
2022-12-29T16:10:38.368Z,26.83
2022-12-29T16:13:17.834Z,29.33
2022-12-29T16:15:48.661Z,31.77
2022-12-29T16:18:26.558Z,36.63
2022-12-29T16:20:55.800Z,29.70
2022-12-29T16:23:28.633Z,30.13
2022-12-29T16:25:59.019Z,25.10
2022-12-29T16:28:34.540Z,23.77
2022-12-29T16:31:07.064Z,23.50
2022-12-29T16:33:47.719Z,23.30
2022-12-29T16:36:34.631Z,21.17
2022-12-29T16:39:29.363Z,18.37
2022-12-29T16:41:58.482Z,19.47
2022-12-29T16:44:29.016Z,19.40
2022-12-29T16:47:22.042Z,18.53
2022-12-29T16:50:14.533Z,18.13
2022-12-29T16:52:43.220Z,16.90
2022-12-29T16:55:27.441Z,17.60
2022-12-29T16:57:57.971Z,19.00
2022-12-29T17:00:33.856Z,18.33
2022-12-29T17:03:04.573Z,16.87
2022-12-29T17:05:57.759Z,20.43
2022-12-29T17:08:26.582Z,20.87
2022-12-29T17:11:15.141Z,21.47
2022-12-29T17:13:43.855Z,22.80
2022-12-29T17:16:14.035Z,23.00
2022-12-29T17:18:42.736Z,24.23
2022-12-29T17:21:13.969Z,29.70
2022-12-29T17:23:42.841Z,34.93
2022-12-29T17:26:12.800Z,25.83
2022-12-29T17:28:41.413Z,22.70
2022-12-29T17:31:21.504Z,24.53
2022-12-29T17:33:50.331Z,23.33
2022-12-29T17:36:20.575Z,27.67
2022-12-29T17:38:49.647Z,25.50
2022-12-29T17:41:18.230Z,27.53
2022-12-29T17:43:47.033Z,32.50
2022-12-29T17:46:15.682Z,37.57
2022-12-29T17:48:49.634Z,31.73
2022-12-29T17:51:24.614Z,28.50
2022-12-29T17:53:53.396Z,23.90
2022-12-29T17:56:21.994Z,22.17
2022-12-29T17:59:16.510Z,47.67
2022-12-29T18:01:46.898Z,44.03
2022-12-29T18:04:17.567Z,39.77
2022-12-29T18:06:48.556Z,32.37
2022-12-29T18:09:18.763Z,29.97
2022-12-29T18:12:09.719Z,29.37
2022-12-29T18:14:38.523Z,27.07
2022-12-29T18:17:14.094Z,27.07
2022-12-29T18:19:43.009Z,28.93
2022-12-29T18:22:13.181Z,28.10
2022-12-29T18:24:41.748Z,26.73
2022-12-29T18:27:14.910Z,26.73
2022-12-29T18:29:44.026Z,24.63
2022-12-29T18:32:14.446Z,25.30
2022-12-29T18:34:43.680Z,25.37
2022-12-29T18:37:13.935Z,32.83
2022-12-29T18:39:43.039Z,49.23
2022-12-29T18:42:17.898Z,41.23
2022-12-29T18:44:46.848Z,39.93
2022-12-29T18:47:15.326Z,35.80
2022-12-29T18:49:43.917Z,28.77
2022-12-29T18:52:16.234Z,33.07
2022-12-29T18:54:45.064Z,33.60
2022-12-29T18:57:13.820Z,29.70
2022-12-29T18:59:42.568Z,25.90
2022-12-29T19:02:18.590Z,32.90
2022-12-29T19:04:52.742Z,27.83
2022-12-29T19:07:23.152Z,30.50
2022-12-29T19:09:51.903Z,28.30
2022-12-29T19:12:25.053Z,24.77
2022-12-29T19:14:56.698Z,24.20
2022-12-29T19:17:26.230Z,24.40
2022-12-29T19:19:55.071Z,26.00
2022-12-29T19:22:25.895Z,30.33
2022-12-29T19:24:59.784Z,41.43
2022-12-29T19:27:29.015Z,37.63
2022-12-29T19:29:57.727Z,29.53
2022-12-29T19:32:26.448Z,32.70
2022-12-29T19:34:55.326Z,31.97
2022-12-29T19:40:10.043Z,28.40
2022-12-29T19:42:38.759Z,28.67
2022-12-29T19:45:08.993Z,27.63
2022-12-29T19:47:37.656Z,30.27
2022-12-29T19:50:25.413Z,33.23
2022-12-29T19:53:04.644Z,31.13
2022-12-29T19:55:34.212Z,36.13
2022-12-29T19:58:03.086Z,36.90
2022-12-29T20:00:31.778Z,27.27
2022-12-29T20:03:00.454Z,25.87
2022-12-29T20:05:29.222Z,30.70
2022-12-29T20:07:59.135Z,41.13
2022-12-29T20:10:27.823Z,38.27
2022-12-29T20:12:56.630Z,30.00
2022-12-29T20:15:25.058Z,26.37
2022-12-29T20:20:42.348Z,27.33
2022-12-29T20:23:13.028Z,26.57
2022-12-29T20:25:45.695Z,26.40
2022-12-29T20:28:33.068Z,26.90
2022-12-29T20:31:04.817Z,29.67
2022-12-29T20:33:34.174Z,25.83
2022-12-29T20:36:07.705Z,29.37
2022-12-29T20:38:41.221Z,28.77
2022-12-29T20:41:10.156Z,27.50
2022-12-29T20:43:38.704Z,25.87
2022-12-29T20:46:07.603Z,26.60
2022-12-29T20:48:36.452Z,27.03
2022-12-29T20:51:59.174Z,27.63
2022-12-29T20:54:45.696Z,33.93
2022-12-29T20:57:14.439Z,35.43
2022-12-29T20:59:43.141Z,30.83
2022-12-29T21:02:21.024Z,30.47
2022-12-29T21:05:23.251Z,28.70
2022-12-29T21:07:38.700Z,29.43
2022-12-29T21:10:10.147Z,31.60
2022-12-29T21:12:38.944Z,30.97
2022-12-29T21:15:09.404Z,27.87
2022-12-29T21:17:38.363Z,27.60
2022-12-29T21:20:07.393Z,26.03
2022-12-29T21:22:36.150Z,29.00
2022-12-29T21:25:05.070Z,30.50
2022-12-29T21:27:36.241Z,27.30
2022-12-29T21:30:05.073Z,27.30
2022-12-29T21:32:33.748Z,27.53
2022-12-29T21:35:12.383Z,27.13
2022-12-29T21:37:41.164Z,26.93
2022-12-29T21:40:10.780Z,26.77
2022-12-29T21:42:41.112Z,36.60
2022-12-29T21:45:28.857Z,41.73
2022-12-29T21:48:18.387Z,36.33
2022-12-29T21:51:05.729Z,37.83
2022-12-29T21:53:42.049Z,34.70
2022-12-29T21:56:12.971Z,30.43
2022-12-29T21:59:02.276Z,30.87
2022-12-29T22:01:49.969Z,28.20
2022-12-29T22:04:38.855Z,29.77
2022-12-29T22:07:27.134Z,28.70
2022-12-29T22:10:13.117Z,25.57
2022-12-29T22:13:00.903Z,28.77
2022-12-29T22:15:32.936Z,26.70
2022-12-29T22:18:02.550Z,26.90
2022-12-29T22:20:33.439Z,25.73
2022-12-29T22:23:02.438Z,29.57
2022-12-29T22:25:31.437Z,26.40
2022-12-29T22:28:00.931Z,26.67
2022-12-29T22:30:43.808Z,25.90
2022-12-29T22:33:12.929Z,24.83
2022-12-29T22:35:41.735Z,24.10
2022-12-29T22:38:10.607Z,25.00
2022-12-29T22:40:39.305Z,23.87
2022-12-29T22:43:12.945Z,22.40
2022-12-29T22:45:44.029Z,21.33
2022-12-29T22:48:12.805Z,22.97
2022-12-29T22:50:41.792Z,24.63
2022-12-29T22:53:10.455Z,25.53
2022-12-29T22:55:39.059Z,24.03
2022-12-29T22:58:07.817Z,23.40
2022-12-29T23:00:36.499Z,25.53
2022-12-29T23:03:07.035Z,23.93
2022-12-29T23:05:36.114Z,23.37
2022-12-29T23:08:04.813Z,24.70
2022-12-29T23:10:33.391Z,23.37
2022-12-29T23:13:01.774Z,23.80
2022-12-29T23:15:30.505Z,26.43
2022-12-29T23:17:59.206Z,25.13
2022-12-29T23:20:29.547Z,23.47
2022-12-29T23:22:58.053Z,25.03
2022-12-29T23:25:26.836Z,24.93
2022-12-29T23:27:55.431Z,27.97
2022-12-29T23:30:24.078Z,26.83
2022-12-29T23:32:52.555Z,24.63
2022-12-29T23:35:21.268Z,25.87
2022-12-29T23:37:51.500Z,25.87
2022-12-29T23:40:20.482Z,25.37
2022-12-29T23:42:49.199Z,28.30
2022-12-29T23:45:17.761Z,32.07
2022-12-29T23:47:46.467Z,31.83
2022-12-29T23:50:15.192Z,32.53
2022-12-29T23:52:43.965Z,28.43
2022-12-29T23:55:13.933Z,27.10
2022-12-29T23:57:42.714Z,29.47
